Flight Track Log - Related Links

Times and Time Zones

All times are in EDT time to prevent confusion due to time zone crossing. See the SKW5631 flight status page for this flight to view local times or setup timezone preferences in your user account.

Time Position Orientation Groundspeed Altitude Reporting Facility
EDT Latitude Longitude Course Direction KTS MPH feet Rate Location/Type
Tue 10:05:01 PM 37.6500 -122.3667 138° Southeast 162 186 1,300  Level Northern Cal TRACON
Tue 10:06:01 PM 37.7000 -122.4000 332° Northwest 232 267 3,400 2,194 Climbing Northern Cal TRACON
Tue 10:07:00 PM 37.3173 -121.9994 135° Southeast  Level Estimated
Tue 10:07:15 PM 37.6289 -122.4206 193° South 256 295 6,200  Level Oakland Center
Tue 10:08:00 PM 37.2164 -121.8748 133° Southeast  Level Estimated
Tue 10:08:17 PM 37.5514 -122.4133 176° South 275 316 8,800  Level Oakland Center
Tue 10:09:00 PM 37.1154 -121.7505 135° Southeast  Level Estimated
Tue 10:09:18 PM 37.4708 -122.3989 172° South 289 333 11,300  Level Oakland Center
Tue 10:10:00 PM 37.0143 -121.6266 138° Southeast  Level Estimated
Tue 10:10:19 PM 37.4000 -122.3336 144° Southeast 321 369 12,900  Level Oakland Center
Tue 10:11:20 PM 37.3281 -122.2539 139° Southeast 343 395 14,500 1,623 Climbing Oakland Center
Tue 10:12:21 PM 37.2547 -122.1719 138° Southeast 352 405 16,200 1,525 Climbing Oakland Center
Tue 10:13:22 PM 37.1778 -122.0872 139° Southeast 366 421 17,600 1,426 Climbing Oakland Center
Tue 10:14:23 PM 37.0842 -121.9819 138° Southeast 376 433 19,100 1,415 Climbing Oakland Center
Tue 10:15:25 PM 37.0042 -121.8947 139° Southeast 382 440 20,500 1,220 Climbing Oakland Center
Tue 10:16:26 PM 36.9219 -121.8069 140° Southeast 390 449 21,600 1,082 Climbing Oakland Center
Tue 10:17:27 PM 36.8367 -121.7186 140° Southeast 397 457 22,700 984 Climbing Oakland Center
Tue 10:18:28 PM 36.7586 -121.6322 138° Southeast 402 463 23,600 927 Climbing Oakland Center
Tue 10:19:30 PM 36.6731 -121.5392 139° Southeast 408 470 24,600 1,024 Climbing Oakland Center
Tue 10:20:31 PM 36.5694 -121.4269 139° Southeast 412 474 25,700 885 Climbing Oakland Center
Tue 10:21:32 PM 36.4833 -121.3347 139° Southeast 410 472 26,400 639 Climbing Oakland Center
Tue 10:22:33 PM 36.3967 -121.2372 138° Southeast 419 482 27,000 295 Climbing Oakland Center
Tue 10:23:34 PM 36.3056 -121.1417 140° Southeast 427 491 27,000  Level Oakland Center
Tue 10:24:36 PM 36.2161 -121.0436 138° Southeast 429 494 27,000  Level Oakland Center
Tue 10:25:37 PM 36.1292 -120.9508 139° Southeast 419 482 27,000  Level Oakland Center
Tue 10:26:38 PM 36.0422 -120.8594 140° Southeast 411 473 27,000  Level Oakland Center
Tue 10:27:39 PM 35.9556 -120.7664 139° Southeast 413 475 27,000  Level Oakland Center
Tue 10:28:40 PM 35.8681 -120.6747 140° Southeast 412 474 27,000  Level Oakland Center
Tue 10:29:42 PM 35.7819 -120.5833 139° Southeast 410 472 27,000  Level Oakland Center
Tue 10:30:43 PM 35.6950 -120.4922 140° Southeast 410 472 27,000  Level Oakland Center
Tue 10:31:44 PM 35.5911 -120.3819 139° Southeast 409 471 27,000  Level Oakland Center
Tue 10:32:45 PM 35.5031 -120.2894 139° Southeast 409 471 27,000 -98 Level Oakland Center
Tue 10:33:46 PM 35.4294 -120.2150 141° Southeast 411 473 26,800 -689 Descending Oakland Center
Tue 10:34:47 PM 35.3219 -120.1006 139° Southeast 418 481 25,600 -1,031 Descending Oakland Center
Tue 10:35:54 PM 35.2325 -120.0086 140° Southeast 418 481 24,600 -1,078 Descending Los Angeles Center
Tue 10:36:55 PM 35.1542 -119.9281 140° Southeast 387 445 23,300 -1,268 Descending Los Angeles Center
Tue 10:37:57 PM 35.0739 -119.8419 139° Southeast 381 438 22,000 -1,268 Descending Los Angeles Center
Tue 10:38:58 PM 35.0053 -119.7461 131° Southeast 378 435 20,700 -1,268 Descending Los Angeles Center
Tue 10:40:00 PM 34.9367 -119.6536 132° Southeast 372 428 19,400 -1,463 Descending Los Angeles Center
Tue 10:41:01 PM 34.8567 -119.5475 133° Southeast 357 411 17,700 -1,415 Descending Los Angeles Center
Tue 10:42:03 PM 34.7928 -119.4625 132° Southeast 346 398 16,500 -1,122 Descending Los Angeles Center
Tue 10:43:04 PM 34.7303 -119.3775 132° Southeast 340 391 15,400 -1,073 Descending Los Angeles Center
Tue 10:44:06 PM 34.6675 -119.2942 132° Southeast 337 388 14,300 -1,073 Descending Los Angeles Center
Tue 10:45:07 PM 34.6064 -119.2142 133° Southeast 328 377 13,200 -1,073 Descending Los Angeles Center
Tue 10:46:09 PM 34.5467 -119.1344 132° Southeast 321 369 12,100 -1,024 Descending Los Angeles Center
Tue 10:47:10 PM 34.4869 -119.0544 132° Southeast 319 367 11,100 -1,268 Descending Los Angeles Center
Tue 10:48:12 PM 34.4292 -118.9792 133° Southeast 304 350 9,500 -1,902 Descending Los Angeles Center
Tue 10:49:13 PM 34.3681 -118.8853 128° Southeast 296 341 7,200 -2,000 Descending Los Angeles Center
Tue 10:50:15 PM 34.3206 -118.8075 126° Southeast 286 329 5,400 -1,317 Descending Los Angeles Center
Tue 10:51:16 PM 34.2758 -118.7356 127° Southeast 275 316 4,500 -683 Descending Los Angeles Center
Tue 10:52:18 PM 34.2369 -118.6714 126° Southeast 250 288 4,000 -244 Descending Los Angeles Center
Tue 10:53:19 PM 34.2050 -118.6133 124° Southeast 217 250 4,000 -264 Level Los Angeles Center
Tue 10:53:49 PM 34.2000 -118.5833 101° East 191 220 3,600 -533 Descending Southern California TRACON
Tue 10:54:49 PM 34.2000 -118.5167 90° East 192 221 3,200 -700 Descending Southern California TRACON
Tue 10:55:49 PM 34.2000 -118.4500 90° East 167 192 2,200 -900 Descending Southern California TRACON
Tue 10:56:49 PM 34.2000 -118.4000 90° East 137 158 1,400 -800 Descending Southern California TRACON

Login

Don't have an account? Register now (free) for customized features, flight alerts, and more!